Time;durP1;ratioP1;P1;durP2;ratioP2;P2;SDS_P1;SDS_P2;PMS_P1;PMS_P2;Temp;Humidity;BMP_temperature;BMP_pressure;BME280_temperature;BME280_humidity;BME280_pressure;Samples;Min_cycle;Max_cycle;Signal;HPM_P1;HPM_P2
2023/07/12 00:00:49;;;;;;;5.17;3.37;;;24.00;80.90;;;26.64;53.32;100503.00;5075842;28;20267;-61
2023/07/12 00:03:17;;;;;;;3.57;2.57;;;23.90;81.10;;;26.58;52.83;100496.00;5075867;28;20192;-62
2023/07/12 00:05:46;;;;;;;3.53;2.70;;;23.90;81.30;;;26.52;53.30;100507.97;5075952;28;20213;-60
2023/07/12 00:08:20;;;;;;;3.77;3.37;;;23.90;81.40;;;26.50;52.83;100563.34;5076133;28;20251;-61
2023/07/12 00:10:49;;;;;;;4.83;3.20;;;23.80;81.40;;;26.46;53.17;100676.50;5075587;28;20209;-60
2023/07/12 00:13:17;;;;;;;4.77;2.90;;;23.80;81.90;;;26.39;53.96;100686.81;5075746;28;20486;-64
2023/07/12 00:15:46;;;;;;;4.50;2.80;;;23.70;82.50;;;26.35;53.51;100664.19;5075710;28;20679;-60
2023/07/12 00:18:16;;;;;;;5.13;3.00;;;23.60;82.60;;;26.30;53.46;100602.13;5075952;28;20189;-62
2023/07/12 00:20:46;;;;;;;3.70;2.30;;;23.60;82.50;;;26.28;53.56;100554.91;5075156;28;20228;-62
2023/07/12 00:23:16;;;;;;;3.43;2.53;;;23.50;82.30;;;26.22;53.62;100529.81;5075769;28;20193;-61
2023/07/12 00:25:47;;;;;;;4.70;3.00;;;23.40;82.40;;;26.20;53.55;100527.41;5075437;28;20217;-62
2023/07/12 00:28:23;;;;;;;7.40;3.30;;;23.40;83.30;;;26.17;54.69;100597.38;5075767;28;20189;-60
2023/07/12 00:30:52;;;;;;;7.20;3.30;;;23.40;84.00;;;26.17;55.04;100591.97;5074178;28;20223;-62
2023/07/12 00:33:20;;;;;;;4.57;3.10;;;23.40;84.70;;;26.15;54.89;100594.94;5075327;28;20208;-61
2023/07/12 00:35:49;;;;;;;3.10;2.80;;;23.30;85.40;;;26.12;56.00;100600.09;5075282;28;20280;-60
2023/07/12 00:38:19;;;;;;;5.40;3.30;;;23.40;86.00;;;26.04;56.71;100598.75;5074678;28;20733;-63
2023/07/12 00:41:16;;;;;;;5.40;3.00;;;23.20;87.40;;;25.85;57.58;100589.72;5072908;28;20617;-62
2023/07/12 00:43:51;;;;;;;5.23;2.60;;;23.10;88.80;;;25.75;57.69;100605.94;5057064;28;20338;-61
2023/07/12 00:46:29;;;;;;;7.83;3.23;;;23.00;89.10;;;25.63;58.60;100613.56;5054886;28;20202;-61
2023/07/12 00:48:57;;;;;;;5.70;3.50;;;23.00;89.80;;;25.53;59.23;100598.22;5055067;28;20273;-61
2023/07/12 00:51:45;;;;;;;4.57;2.50;;;22.80;90.20;;;25.39;59.16;100599.06;5055512;28;20189;-61
2023/07/12 00:54:16;;;;;;;3.73;2.33;;;22.80;90.30;;;25.31;59.40;100586.97;5055275;28;20190;-60
2023/07/12 00:56:44;;;;;;;4.10;2.90;;;22.70;90.40;;;25.21;59.81;100588.91;5055150;28;20197;-60
2023/07/12 00:59:18;;;;;;;5.20;2.47;;;22.50;90.70;;;25.15;59.24;100606.16;5054411;28;20214;-61
2023/07/12 01:01:48;;;;;;;3.23;2.70;;;22.50;90.50;;;25.15;59.44;100563.84;5055131;28;20273;-64
2023/07/12 01:04:21;;;;;;;3.87;2.67;;;22.40;90.80;;;25.14;59.65;100535.31;5054924;28;20190;-59
2023/07/12 01:06:52;;;;;;;3.97;2.70;;;22.50;90.90;;;25.16;59.90;100546.59;5054872;28;20275;-61
2023/07/12 01:09:20;;;;;;;6.60;2.80;;;22.40;91.00;;;25.10;60.31;100544.22;5054352;28;20704;-61
2023/07/12 01:11:49;;;;;;;3.27;2.30;;;22.30;91.20;;;25.08;60.21;100520.22;5054789;28;20276;-60
2023/07/12 01:14:18;;;;;;;2.73;1.97;;;22.30;91.20;;;25.06;60.06;100537.75;5054966;28;20186;-61
2023/07/12 01:16:51;;;;;;;3.00;2.20;;;22.30;91.40;;;25.05;60.14;100580.06;5054516;28;20277;-59
2023/07/12 01:19:18;;;;;;;3.97;1.90;;;22.20;91.20;;;25.05;59.95;100623.16;5054345;28;20206;-61
2023/07/12 01:21:49;;;;;;;2.17;1.60;;;22.30;91.20;;;25.07;59.52;100658.72;5054521;28;20194;-61
2023/07/12 01:24:19;;;;;;;2.33;1.67;;;22.30;91.10;;;25.08;59.79;100695.34;5054582;28;20612;-60
2023/07/12 01:26:49;;;;;;;1.87;1.30;;;22.30;91.00;;;25.11;59.15;100658.97;5054821;28;20218;-59
2023/07/12 01:29:16;;;;;;;3.43;1.70;;;22.30;90.90;;;25.14;59.51;100599.16;5054739;28;20725;-61
2023/07/12 01:31:44;;;;;;;2.03;1.33;;;22.40;91.10;;;25.17;59.48;100572.47;5054594;28;20182;-59
2023/07/12 01:34:12;;;;;;;3.23;1.77;;;22.40;91.30;;;25.21;60.24;100545.78;5054583;28;20186;-61
2023/07/12 01:36:40;;;;;;;1.97;1.70;;;22.40;91.30;;;25.21;60.25;100546.59;5054153;28;20212;-61
2023/07/12 01:39:08;;;;;;;3.20;1.40;;;22.50;91.30;;;25.22;59.44;100564.34;5056789;28;20243;-60
2023/07/12 01:41:36;;;;;;;1.60;1.50;;;22.50;91.30;;;25.25;59.40;100563.00;5074041;28;20193;-61
2023/07/12 01:44:04;;;;;;;1.30;1.20;;;22.50;91.10;;;25.30;59.72;100569.19;5061973;28;20201;-61
2023/07/12 01:46:31;;;;;;;1.60;1.40;;;22.50;91.10;;;25.34;59.93;100583.72;5054062;28;20606;-60
2023/07/12 01:48:59;;;;;;;1.87;1.63;;;22.60;91.10;;;25.41;60.09;100595.00;5053452;28;20213;-61
2023/07/12 01:51:28;;;;;;;3.37;2.07;;;22.60;91.10;;;25.47;59.34;100601.22;5054460;28;20606;-62
2023/07/12 01:53:55;;;;;;;2.83;1.93;;;22.70;91.20;;;25.54;59.52;100599.84;5054124;28;20276;-61
2023/07/12 01:56:23;;;;;;;3.43;2.10;;;22.70;91.00;;;25.60;58.88;100589.03;5053938;28;20190;-57
2023/07/12 01:58:50;;;;;;;3.10;1.70;;;22.80;90.90;;;25.66;58.79;100590.63;5053546;28;20194;-61
2023/07/12 02:01:17;;;;;;;2.07;1.80;;;22.80;90.80;;;25.72;58.68;100568.72;5054104;28;20186;-61
2023/07/12 02:03:44;;;;;;;2.47;2.00;;;22.90;90.80;;;25.79;58.97;100560.34;5053839;28;20221;-60
2023/07/12 02:06:12;;;;;;;3.77;2.10;;;22.90;90.70;;;25.84;58.58;100560.31;5053772;28;20213;-61
2023/07/12 02:08:39;;;;;;;2.37;1.97;;;22.90;90.60;;;25.86;58.10;100558.97;5053505;28;20188;-61
2023/07/12 02:11:06;;;;;;;2.10;1.67;;;22.90;90.40;;;25.89;57.81;100552.19;5053979;28;20190;-60
2023/07/12 02:13:36;;;;;;;2.53;1.53;;;23.00;90.40;;;25.89;57.67;100546.78;5053800;28;20197;-61
2023/07/12 02:16:04;;;;;;;2.33;1.93;;;23.00;90.40;;;25.84;58.37;100527.97;5054025;28;20253;-62
2023/07/12 02:18:31;;;;;;;2.73;1.77;;;23.00;90.40;;;25.82;58.81;100511.22;5053342;28;20194;-61
2023/07/12 02:21:01;;;;;;;2.90;1.90;;;23.00;90.60;;;25.80;58.85;100497.22;5053815;28;20276;-63
2023/07/12 02:23:28;;;;;;;4.13;2.40;;;23.00;90.60;;;25.80;58.40;100489.13;5053365;28;20190;-60
2023/07/12 02:25:55;;;;;;;2.17;1.80;;;23.00;90.60;;;25.78;58.96;100480.50;5053654;28;20236;-61
2023/07/12 02:28:22;;;;;;;2.20;1.93;;;23.00;90.50;;;25.76;58.39;100444.94;5053996;28;20182;-60
2023/07/12 02:30:51;;;;;;;2.30;1.67;;;23.00;90.60;;;25.78;59.06;100426.56;5053595;28;20607;-62
2023/07/12 02:33:17;;;;;;;2.13;1.80;;;23.00;90.70;;;25.81;58.40;100431.41;5053422;28;20194;-61
2023/07/12 02:35:44;;;;;;;2.63;1.80;;;23.00;90.70;;;25.83;59.03;100423.84;5060178;28;20219;-62
2023/07/12 02:38:11;;;;;;;2.27;1.90;;;23.00;90.70;;;25.84;58.18;100430.84;5072600;28;20197;-61
2023/07/12 02:40:38;;;;;;;2.13;1.67;;;23.00;90.50;;;25.85;58.13;100419.78;5073156;28;20266;-61
2023/07/12 02:43:05;;;;;;;2.60;2.00;;;23.10;90.50;;;25.87;58.62;100404.09;5068922;28;20207;-60
2023/07/12 02:45:32;;;;;;;1.93;1.60;;;23.00;90.40;;;25.87;58.37;100403.28;5053276;28;20751;-62
2023/07/12 02:48:01;;;;;;;1.87;1.63;;;23.00;90.20;;;25.86;58.52;100417.88;5053545;28;20251;-60
2023/07/12 02:50:28;;;;;;;1.87;1.63;;;23.10;90.40;;;25.87;58.17;100430.25;5053174;28;20248;-60
2023/07/12 02:52:55;;;;;;;2.03;1.77;;;23.10;90.50;;;25.88;58.76;100437.28;5053584;28;20673;-59
2023/07/12 02:55:22;;;;;;;2.57;1.40;;;23.10;90.60;;;25.92;57.80;100447.22;5053532;28;20193;-60
2023/07/12 02:57:49;;;;;;;1.97;1.40;;;23.10;90.40;;;25.96;58.25;100452.88;5053794;28;20205;-60
2023/07/12 03:00:18;;;;;;;1.60;1.50;;;23.10;90.20;;;25.98;58.29;100458.78;5053020;28;20626;-61
2023/07/12 03:02:45;;;;;;;1.83;1.60;;;23.10;90.30;;;25.98;57.92;100474.97;5057174;28;20193;-61
2023/07/12 03:05:13;;;;;;;1.87;1.57;;;23.10;90.10;;;25.97;57.20;100492.22;5057248;28;20186;-62
2023/07/12 03:07:41;;;;;;;2.40;1.97;;;23.10;90.00;;;25.94;56.96;100490.09;5056879;28;20200;-62
2023/07/12 03:10:09;;;;;;;1.73;1.63;;;23.10;89.60;;;25.90;57.44;100478.25;5056228;28;20216;-60
2023/07/12 03:12:36;;;;;;;1.87;1.73;;;23.10;89.50;;;25.87;57.42;100463.44;5056856;28;20603;-61
2023/07/12 03:15:04;;;;;;;2.60;1.90;;;23.10;89.80;;;25.88;57.35;100464.25;5056896;28;20229;-61
2023/07/12 03:17:31;;;;;;;2.53;2.30;;;23.00;90.10;;;25.90;58.43;100467.47;5056765;28;20277;-60
2023/07/12 03:19:58;;;;;;;3.07;2.40;;;23.10;90.50;;;25.94;58.37;100479.31;5056690;28;20214;-60
2023/07/12 03:22:27;;;;;;;2.27;1.73;;;23.10;90.60;;;25.96;57.78;100498.75;5057069;28;20202;-61
2023/07/12 03:24:53;;;;;;;3.73;2.10;;;23.10;90.40;;;25.97;57.69;100501.13;5056715;28;20190;-57
2023/07/12 03:27:20;;;;;;;3.80;1.83;;;23.10;90.40;;;25.93;57.34;100497.41;5057080;28;20202;-63
2023/07/12 03:29:48;;;;;;;2.43;2.03;;;23.00;90.10;;;25.89;57.31;100503.63;5056465;28;20221;-60
2023/07/12 03:32:14;;;;;;;1.73;1.63;;;23.10;90.20;;;25.87;57.53;100538.16;5065824;28;20545;-63
2023/07/12 03:34:41;;;;;;;3.00;2.63;;;23.00;90.30;;;25.87;57.87;100567.84;5076391;28;20199;-60
2023/07/12 03:37:09;;;;;;;3.30;2.93;;;23.00;90.50;;;25.83;57.99;100604.56;5076273;28;20243;-62
2023/07/12 03:39:37;;;;;;;3.77;3.40;;;23.00;90.50;;;25.75;58.19;100621.31;5076025;28;20209;-61
2023/07/12 03:42:05;;;;;;;3.17;2.70;;;23.00;90.50;;;25.67;58.30;100635.41;5076308;28;20632;-62
2023/07/12 03:44:32;;;;;;;3.27;2.30;;;23.00;90.50;;;25.55;58.48;100639.19;5059946;28;20213;-61
2023/07/12 03:46:59;;;;;;;3.00;2.30;;;22.90;90.50;;;25.47;58.60;100652.44;5056076;28;20555;-62
2023/07/12 03:49:27;;;;;;;2.93;2.33;;;22.80;90.40;;;25.42;59.17;100637.06;5055888;28;20214;-60
2023/07/12 03:51:54;;;;;;;2.33;2.13;;;22.80;90.60;;;25.35;59.32;100625.78;5056192;28;20189;-61
2023/07/12 03:54:21;;;;;;;2.10;1.90;;;22.70;90.50;;;25.30;58.69;100615.00;5056453;28;20229;-60
2023/07/12 03:56:49;;;;;;;1.67;1.37;;;22.70;90.60;;;25.26;59.18;100615.81;5056058;28;20186;-61
2023/07/12 03:59:19;;;;;;;3.50;2.13;;;22.60;90.60;;;25.18;58.54;100606.41;5055459;28;20210;-61
2023/07/12 04:01:46;;;;;;;2.10;1.90;;;22.50;90.50;;;25.16;59.22;100597.81;5056208;28;20697;-61
2023/07/12 04:04:13;;;;;;;2.27;2.00;;;22.50;90.70;;;25.13;59.42;100587.56;5055805;28;20596;-60
2023/07/12 04:06:40;;;;;;;1.80;1.70;;;22.50;90.70;;;25.13;59.01;100589.44;5055878;28;20305;-61
2023/07/12 04:09:08;;;;;;;1.97;1.63;;;22.40;90.80;;;25.13;58.81;100597.53;5055340;28;20214;-61
2023/07/12 04:11:37;;;;;;;2.67;2.23;;;22.40;90.80;;;25.11;58.72;100595.13;5055731;28;20201;-60
2023/07/12 04:14:05;;;;;;;3.20;2.33;;;22.40;90.90;;;25.11;59.49;100595.13;5055748;28;20273;-60
2023/07/12 04:16:32;;;;;;;2.30;2.10;;;22.40;90.90;;;25.10;58.74;100604.31;5055892;28;20190;-61
2023/07/12 04:18:59;;;;;;;2.23;2.10;;;22.30;90.70;;;25.07;58.81;100609.41;5055196;28;20549;-59
2023/07/12 04:21:26;;;;;;;3.07;2.30;;;22.30;90.70;;;25.02;58.57;100604.84;5055041;28;20244;-59
2023/07/12 04:23:54;;;;;;;3.30;2.40;;;22.30;90.70;;;25.01;59.07;100605.13;5055542;28;20232;-61
2023/07/12 04:26:21;;;;;;;2.33;2.13;;;22.30;90.70;;;24.98;58.64;100592.19;5055148;28;20240;-61
2023/07/12 04:28:51;;;;;;;3.17;2.30;;;22.30;90.60;;;24.97;59.08;100596.78;5066446;28;20189;-63
2023/07/12 04:31:20;;;;;;;3.30;2.50;;;22.20;90.60;;;24.96;59.09;100613.22;5075619;28;20203;-61
2023/07/12 04:33:48;;;;;;;3.00;2.30;;;22.20;90.60;;;24.97;58.78;100637.19;5075165;28;20189;-61
2023/07/12 04:36:17;;;;;;;2.93;2.70;;;22.20;90.60;;;24.93;59.22;100657.66;5074780;28;20339;-60
2023/07/12 04:38:45;;;;;;;2.93;2.50;;;22.20;90.60;;;24.89;58.87;100664.66;5075103;28;20193;-61
2023/07/12 04:41:12;;;;;;;3.97;2.67;;;22.20;90.60;;;24.87;58.68;100670.31;5075765;28;20264;-61
2023/07/12 04:43:39;;;;;;;3.33;2.27;;;22.20;90.60;;;24.87;59.37;100664.13;5065768;28;20572;-61
2023/07/12 04:46:06;;;;;;;3.50;2.90;;;22.20;90.60;;;24.87;59.41;100658.72;5055071;28;20210;-60
2023/07/12 04:48:34;;;;;;;3.73;2.40;;;22.20;90.70;;;24.88;58.69;100660.38;5054880;28;20208;-61
2023/07/12 04:51:03;;;;;;;3.37;2.67;;;22.20;90.60;;;24.91;59.14;100649.06;5054818;28;20222;-62
2023/07/12 04:53:31;;;;;;;2.93;2.73;;;22.20;90.60;;;24.92;58.97;100668.69;5054903;28;20197;-60
2023/07/12 04:55:58;;;;;;;3.03;2.73;;;22.20;90.40;;;24.86;58.37;100692.16;5054728;28;20208;-61
2023/07/12 04:58:26;;;;;;;3.30;2.90;;;22.20;90.40;;;24.80;58.12;100682.44;5054602;28;20797;-64
2023/07/12 05:00:53;;;;;;;3.23;2.63;;;22.10;90.20;;;24.74;59.12;100678.91;5054314;28;20213;-61
2023/07/12 05:03:20;;;;;;;3.63;2.30;;;22.10;90.30;;;24.72;58.72;100683.75;5054640;28;20201;-61
2023/07/12 05:05:49;;;;;;;2.47;2.20;;;22.10;90.20;;;24.74;59.08;100675.41;5054301;28;20185;-61
2023/07/12 05:08:16;;;;;;;4.20;2.47;;;22.10;90.30;;;24.75;58.71;100667.06;5054279;28;20201;-61
2023/07/12 05:10:44;;;;;;;3.13;2.40;;;22.10;90.30;;;24.76;58.67;100673.25;5054136;28;20236;-63
2023/07/12 05:13:11;;;;;;;4.00;2.50;;;22.10;90.10;;;24.74;57.97;100660.06;5054244;28;20666;-62
2023/07/12 05:15:38;;;;;;;2.67;2.30;;;22.10;90.10;;;24.77;58.39;100627.22;5053976;28;20190;-59
2023/07/12 05:18:05;;;;;;;2.60;2.40;;;22.00;90.10;;;24.78;58.46;100612.69;5054499;28;20753;-58
2023/07/12 05:20:33;;;;;;;2.93;2.50;;;22.10;90.30;;;24.83;58.35;100614.56;5053844;28;20206;-60
2023/07/12 05:23:01;;;;;;;3.40;2.27;;;22.10;90.10;;;24.81;57.54;100606.78;5054114;28;20217;-61
2023/07/12 05:25:28;;;;;;;2.70;2.50;;;22.10;89.80;;;24.74;57.67;100597.31;5068872;28;20201;-59
2023/07/12 05:27:55;;;;;;;2.80;2.53;;;22.10;88.70;;;24.66;57.15;100609.44;5074081;28;20213;-62
2023/07/12 05:30:22;;;;;;;2.60;2.30;;;22.10;88.50;;;24.60;57.93;100586.31;5071534;28;20219;-61
2023/07/12 05:32:49;;;;;;;2.97;2.53;;;22.00;88.50;;;24.51;57.17;100576.34;5074017;28;20273;-61
2023/07/12 05:35:16;;;;;;;2.43;2.23;;;22.00;87.70;;;24.43;57.15;100576.88;5073311;28;20228;-64
2023/07/12 05:37:43;;;;;;;3.03;2.67;;;21.90;87.90;;;24.38;57.66;100596.53;5073434;28;20266;-61
2023/07/12 05:40:12;;;;;;;2.40;2.07;;;21.90;88.40;;;24.39;57.84;100611.59;5073390;28;20223;-62
2023/07/12 05:42:41;;;;;;;4.40;2.50;;;21.80;88.30;;;24.42;57.24;100661.38;5072481;28;20260;-60
2023/07/12 05:45:13;;;;;;;2.90;1.80;;;21.80;88.70;;;24.48;57.80;100671.91;5053856;28;20197;-60
2023/07/12 05:47:47;;;;;;;2.30;2.07;;;21.80;88.90;;;24.49;57.74;100672.69;5053516;28;20221;-60
2023/07/12 05:50:17;;;;;;;3.97;2.23;;;21.80;89.80;;;24.52;57.37;100693.69;5053438;28;20213;-61
2023/07/12 05:52:45;;;;;;;3.20;2.63;;;21.80;89.20;;;24.56;57.28;100689.38;5053591;28;20194;-61
2023/07/12 05:55:18;;;;;;;4.57;2.40;;;21.80;89.30;;;24.62;57.74;100693.72;5053406;28;20190;-61
2023/07/12 05:57:46;;;;;;;2.93;2.33;;;21.80;89.40;;;24.70;57.26;100685.09;5053461;28;20201;-63
2023/07/12 06:00:15;;;;;;;3.17;2.67;;;21.90;89.30;;;24.76;56.89;100682.19;5052399;28;20223;-59
2023/07/12 06:02:42;;;;;;;2.83;2.53;;;21.90;89.40;;;24.84;57.18;100681.63;5053384;28;20277;-57
2023/07/12 06:05:10;;;;;;;3.00;2.73;;;21.90;89.30;;;24.90;57.13;100690.53;5053185;28;20189;-59
2023/07/12 06:07:37;;;;;;;3.00;2.70;;;22.00;89.20;;;24.83;56.59;100669.25;5053315;28;20213;-57
2023/07/12 06:10:05;;;;;;;2.83;2.63;;;22.00;88.90;;;24.85;57.05;100666.28;5053321;28;20206;-62
2023/07/12 06:12:34;;;;;;;3.70;3.07;;;22.00;88.80;;;24.84;56.43;100654.69;5052928;28;20201;-62
2023/07/12 06:15:01;;;;;;;3.80;2.77;;;22.00;88.50;;;24.84;56.22;100656.59;5053341;28;20224;-62
2023/07/12 06:17:29;;;;;;;4.70;3.37;;;22.00;88.20;;;24.85;56.48;100666.28;5053103;28;20623;-62
2023/07/12 06:19:56;;;;;;;4.83;2.80;;;22.00;88.20;;;24.82;56.07;100678.41;5052535;28;20209;-61
2023/07/12 06:22:23;;;;;;;6.23;3.10;;;22.00;87.20;;;24.79;55.59;100672.75;5073073;28;20226;-62
2023/07/12 06:24:52;;;;;;;3.50;2.47;;;22.00;87.10;;;24.77;55.95;100683.00;5073695;28;20224;-62
2023/07/12 06:27:19;;;;;;;2.93;2.63;;;22.00;86.80;;;24.78;55.89;100693.50;5072605;28;20642;-61
2023/07/12 06:29:48;;;;;;;2.50;2.30;;;22.00;86.60;;;24.82;54.95;100704.50;5072650;28;20223;-62
2023/07/12 06:32:15;;;;;;;3.50;2.50;;;22.00;85.80;;;24.80;54.67;100707.50;5073303;28;20195;-60
2023/07/12 06:34:42;;;;;;;3.80;2.80;;;21.90;85.30;;;24.79;54.76;100718.53;5072756;28;20189;-61
2023/07/12 06:37:09;;;;;;;2.33;2.10;;;22.00;85.50;;;24.75;54.64;100717.41;5075785;28;20301;-61
2023/07/12 06:39:37;;;;;;;4.50;2.43;;;22.00;85.10;;;24.73;54.17;100724.94;5076813;28;20236;-61
2023/07/12 06:42:04;;;;;;;2.40;1.97;;;21.90;84.90;;;24.73;54.72;100714.19;5065551;28;20209;-61
2023/07/12 06:44:32;;;;;;;3.07;2.60;;;22.00;85.00;;;24.73;54.16;100712.31;5058799;28;20647;-60
2023/07/12 06:47:01;;;;;;;3.33;2.50;;;21.90;84.80;;;24.72;54.72;100718.75;5056775;28;20224;-61
2023/07/12 06:49:28;;;;;;;4.67;2.53;;;22.00;84.70;;;24.73;54.27;100725.75;5056762;28;20235;-59
2023/07/12 06:51:55;;;;;;;3.30;2.40;;;21.90;84.90;;;24.80;54.28;100722.84;5056824;28;20189;-62
2023/07/12 06:54:22;;;;;;;2.90;2.50;;;22.00;84.70;;;24.87;54.13;100728.75;5056887;28;20263;-61
2023/07/12 06:56:49;;;;;;;5.13;2.93;;;22.00;84.40;;;24.95;53.55;100730.13;5056438;28;20181;-61
2023/07/12 06:59:16;;;;;;;3.07;2.60;;;22.00;84.20;;;25.00;53.25;100739.00;5055789;28;20216;-61
2023/07/12 07:01:43;;;;;;;2.50;2.30;;;22.10;84.10;;;25.07;53.21;100744.94;5055598;28;20239;-60
2023/07/12 07:04:11;;;;;;;2.77;2.17;;;22.10;83.70;;;25.11;53.05;100751.41;5056933;28;20194;-61
2023/07/12 07:06:39;;;;;;;5.43;2.40;;;22.20;83.80;;;25.14;52.65;100737.38;5056478;28;20221;-58
2023/07/12 07:09:06;;;;;;;3.30;2.33;;;22.20;83.10;;;25.14;52.67;100739.28;5056138;28;20305;-61
2023/07/12 07:11:33;;;;;;;3.67;2.40;;;22.20;82.60;;;25.15;52.13;100720.13;5056469;28;20221;-62
2023/07/12 07:14:00;;;;;;;3.13;2.07;;;22.30;82.30;;;25.16;52.46;100731.72;5056520;28;20262;-60
2023/07/12 07:16:27;;;;;;;4.90;2.50;;;22.30;81.80;;;25.17;51.86;100738.75;5058234;28;20206;-61
2023/07/12 07:18:54;;;;;;;4.50;2.30;;;22.40;82.00;;;25.15;51.79;100739.00;5075659;28;20618;-62
2023/07/12 07:21:23;;;;;;;2.77;2.20;;;22.40;81.00;;;25.19;51.56;100758.94;5076436;28;20185;-62
2023/07/12 07:23:50;;;;;;;3.50;2.20;;;22.40;81.00;;;25.19;52.02;100761.66;5076270;28;20189;-61
2023/07/12 07:26:17;;;;;;;2.93;2.30;;;22.40;81.20;;;25.25;51.68;100757.03;5072364;28;20273;-59
2023/07/12 07:28:44;;;;;;;3.47;2.30;;;22.40;80.70;;;25.33;51.24;100760.00;5055886;28;20217;-61
2023/07/12 07:31:11;;;;;;;7.13;2.20;;;22.50;81.10;;;25.42;51.89;100750.28;5056636;28;20570;-61
2023/07/12 07:33:39;;;;;;;2.43;2.10;;;22.50;80.80;;;25.50;51.46;100755.19;5056082;28;20198;-61
2023/07/12 07:36:09;;;;;;;4.67;2.47;;;22.60;81.00;;;25.62;50.92;100762.97;5055931;28;20277;-63
2023/07/12 07:38:38;;;;;;;5.97;2.60;;;22.70;80.80;;;25.70;50.77;100764.31;5054359;28;20622;-59
2023/07/12 07:41:11;;;;;;;5.50;2.23;;;22.70;80.10;;;25.81;50.89;100771.28;5055885;28;20293;-59
2023/07/12 07:43:40;;;;;;;4.57;2.63;;;22.80;80.10;;;25.86;49.89;100782.88;5057462;28;20204;-61
2023/07/12 07:46:07;;;;;;;4.50;2.33;;;22.90;79.20;;;25.89;50.32;100797.66;5056836;28;20198;-60
2023/07/12 07:48:35;;;;;;;3.43;2.47;;;23.00;78.80;;;25.84;50.13;100789.63;5053386;28;20217;-64
2023/07/12 07:51:03;;;;;;;4.53;2.30;;;23.00;78.20;;;25.78;49.43;100790.69;5056147;28;20182;-60
2023/07/12 07:53:32;;;;;;;7.33;3.23;;;23.00;78.20;;;25.76;50.15;100792.88;5056037;28;20186;-60
2023/07/12 07:56:01;;;;;;;3.47;2.23;;;22.90;78.40;;;25.81;49.73;100784.75;5057573;28;20229;-61
2023/07/12 07:58:28;;;;;;;2.43;2.23;;;22.90;78.70;;;25.87;50.23;100783.66;5061678;28;20197;-65
2023/07/12 08:00:55;;;;;;;3.63;2.00;;;22.90;78.50;;;25.96;49.90;100780.13;5071285;28;20220;-62
2023/07/12 08:03:22;;;;;;;4.67;2.80;;;23.00;78.80;;;26.03;49.13;100785.25;5061818;28;20198;-63
2023/07/12 08:05:49;;;;;;;3.97;2.80;;;23.00;78.40;;;25.98;49.22;100787.97;5058194;28;20193;-62
2023/07/12 08:08:17;;;;;;;3.37;2.40;;;23.10;78.10;;;25.99;49.69;100784.16;5061974;28;20245;-59
2023/07/12 08:10:43;;;;;;;3.87;2.70;;;23.10;79.10;;;25.94;49.59;100784.16;5060419;28;20584;-62
2023/07/12 08:13:12;;;;;;;3.90;2.60;;;23.10;77.60;;;25.95;49.45;100791.19;5060530;28;20325;-62
2023/07/12 08:15:41;;;;;;;6.57;3.00;;;23.20;77.60;;;26.04;49.39;100800.34;5058523;28;20213;-62
2023/07/12 08:18:10;;;;;;;5.50;2.30;;;23.20;77.80;;;26.17;48.90;100787.09;5058270;28;20206;-62
2023/07/12 08:20:39;;;;;;;3.87;2.57;;;23.20;77.60;;;26.88;47.95;100788.63;5066067;28;20220;-62
2023/07/12 08:23:08;;;;;;;3.80;2.30;;;23.30;77.80;;;27.67;47.01;100791.75;5063281;28;20268;-62
2023/07/12 08:25:35;;;;;;;5.43;3.30;;;23.60;78.40;;;28.28;45.62;100793.78;5063727;28;20281;-62
2023/07/12 08:28:03;;;;;;;4.00;2.63;;;24.00;76.70;;;28.73;42.57;100801.31;5062617;28;20220;-60
2023/07/12 08:30:31;;;;;;;4.20;2.03;;;24.40;73.00;;;28.60;42.70;100815.59;5064092;28;20617;-61
2023/07/12 08:32:59;;;;;;;6.90;3.00;;;24.70;72.10;;;28.52;43.16;100824.34;5063295;28;20198;-63
2023/07/12 08:35:26;;;;;;;3.93;2.40;;;25.00;71.20;;;28.98;42.48;100830.75;5062401;28;20203;-60
2023/07/12 08:38:13;;;;;;;6.80;2.20;;;25.10;70.90;;;29.63;40.54;100831.63;5066138;28;20248;-62
2023/07/12 08:40:46;;;;;;;3.20;2.27;;;25.40;68.40;;;29.72;40.24;100829.00;5065146;28;20759;-62
2023/07/12 08:43:17;;;;;;;4.97;2.53;;;25.70;67.20;;;29.62;39.98;100831.94;5066881;28;20581;-61
2023/07/12 08:45:50;;;;;;;3.53;2.30;;;25.90;66.00;;;29.55;39.45;100828.78;5064778;28;20201;-62
2023/07/12 08:48:20;;;;;;;5.03;3.07;;;26.00;65.20;;;29.19;40.47;100825.88;5066753;28;20316;-62
2023/07/12 08:50:50;;;;;;;4.47;2.50;;;25.80;65.30;;;29.36;40.48;100821.50;5061572;28;20221;-62
2023/07/12 08:53:24;;;;;;;5.73;2.90;;;25.80;65.50;;;30.16;39.76;100821.13;5070430;28;20254;-62
2023/07/12 08:55:54;;;;;;;3.67;2.37;;;26.00;65.80;;;31.06;37.01;100821.09;5044388;28;20321;-61
2023/07/12 08:58:27;;;;;;;4.27;2.73;;;26.30;63.20;;;31.50;36.11;100814.81;5056276;28;20271;-62
2023/07/12 09:01:03;;;;;;;4.10;2.80;;;26.80;62.20;;;31.56;36.28;100816.31;5038632;28;20754;-62
2023/07/12 09:03:31;;;;;;;4.90;2.60;;;27.10;60.70;;;31.19;36.26;100820.22;5042415;28;20190;-62
2023/07/12 09:05:59;;;;;;;5.70;2.50;;;27.30;60.00;;;30.64;36.78;100825.00;5042657;28;20199;-62
2023/07/12 09:09:18;;;;;;;5.17;2.50;;;27.20;59.80;;;30.10;38.03;100819.63;5043897;28;20209;-63
2023/07/12 09:11:47;;;;;;;5.93;2.50;;;27.10;60.40;;;30.74;38.03;100826.69;5038844;28;20380;-62
2023/07/12 09:14:16;;;;;;;6.70;3.17;;;26.90;61.10;;;30.95;37.36;100827.88;5044710;28;20224;-62
2023/07/12 09:16:54;;;;;;;4.93;3.37;;;27.00;60.60;;;31.37;36.19;100821.94;5043527;28;20206;-60
2023/07/12 09:19:28;;;;;;;6.73;2.43;;;27.10;59.60;;;32.29;33.92;100831.19;5042053;28;20574;-62
2023/07/12 09:22:13;;;;;;;4.17;2.37;;;27.30;58.60;;;33.24;32.87;100838.38;5042919;28;20190;-61
2023/07/12 09:24:44;;;;;;;4.30;2.40;;;27.70;57.80;;;33.91;31.79;100819.41;5040924;28;20682;-57
2023/07/12 09:27:16;;;;;;;4.20;3.10;;;28.30;57.10;;;34.83;29.98;100823.88;5042724;28;20248;-60
2023/07/12 09:29:43;;;;;;;4.63;2.67;;;28.70;54.80;;;35.03;30.14;100819.56;5039075;28;20565;-61
2023/07/12 09:32:22;;;;;;;3.53;2.37;;;29.10;53.90;;;35.09;28.88;100823.69;5041450;28;20194;-59
2023/07/12 09:34:51;;;;;;;5.73;2.80;;;29.40;51.90;;;35.56;28.62;100819.53;5040600;28;20190;-58
2023/07/12 09:37:22;;;;;;;4.82;2.47;;;29.80;52.20;;;36.39;27.70;100827.31;5038954;28;20234;-60
2023/07/12 09:39:55;;;;;;;14.67;13.30;;;30.20;50.30;;;36.61;26.86;100818.63;5038968;28;20218;-59
2023/07/12 09:42:27;;;;;;;5.18;3.22;;;30.60;49.30;;;36.47;26.92;100824.47;5041714;28;20359;-59
2023/07/12 09:44:56;;;;;;;3.93;2.73;;;30.80;47.80;;;35.59;27.42;100834.50;5042586;28;20194;-59
2023/07/12 09:47:41;;;;;;;5.13;2.63;;;30.90;47.20;;;34.69;28.79;100835.09;5039427;28;20659;-54
2023/07/12 09:50:21;;;;;;;4.43;2.70;;;30.70;47.00;;;34.07;29.64;100842.38;5043463;28;20286;-59
2023/07/12 09:53:00;;;;;;;4.37;2.50;;;30.40;47.80;;;33.50;30.44;100843.78;5043434;28;20289;-58
2023/07/12 09:55:41;;;;;;;5.47;3.43;;;30.10;47.80;;;32.88;31.12;100844.16;5040886;28;20528;-60
2023/07/12 09:58:19;;;;;;;4.00;2.40;;;29.60;48.20;;;33.03;31.55;100846.44;5043776;28;20604;-59
2023/07/12 10:00:57;;;;;;;3.97;2.50;;;29.40;49.50;;;33.79;29.52;100839.25;5039579;28;20218;-58
2023/07/12 10:03:35;;;;;;;4.63;2.70;;;29.20;48.70;;;33.76;30.12;100839.88;5040343;28;20550;-59
2023/07/12 10:06:22;;;;;;;8.27;2.57;;;29.30;49.10;;;34.14;29.74;100841.88;5040181;28;20616;-59
2023/07/12 10:08:59;;;;;;;4.07;2.50;;;29.40;49.20;;;35.26;28.40;100828.97;5034219;28;20282;-60
2023/07/12 10:11:34;;;;;;;6.25;2.50;;;29.70;48.70;;;36.03;27.09;100835.56;5038744;28;20225;-60
2023/07/12 10:14:09;;;;;;;4.65;2.58;;;30.00;47.60;;;36.65;26.11;100830.50;5040268;28;20231;-59
2023/07/12 10:16:44;;;;;;;4.23;2.30;;;30.50;46.30;;;35.84;27.29;100847.88;5034963;28;20627;-56
2023/07/12 10:19:26;;;;;;;6.28;3.20;;;30.60;46.00;;;35.84;27.60;100845.13;5041599;28;20923;-59
2023/07/12 10:21:58;;;;;;;4.05;2.65;;;30.80;46.10;;;35.06;27.58;100843.53;5031856;28;20208;-60